Terminal Aerodrome Forecast
Issued by NWS Portland, OR

Home | Current Version | Previous Version | Text Only | Print | Product List | Glossary On
Versions: 1 2 3 4 5 6 7 8 9 10 11 12 13 14 15 16 17 18 19 20
000
FTUS46 KPQR 270526
TAFAST
TAF
KAST 270526Z 2706/2806 22007KT 5SM BR BKN003
     FM270900 22005KT 5SM BR OVC006
     FM271900 26008KT 6SM BR OVC015
     FM280200 27008KT 4SM BR OVC007=

USA.gov is the U.S. government's official web portal to all federal, state and local government web resources and services.